createdAt,value
2018-05-03T00:00:52.874Z,21.58
2018-05-03T00:01:52.955Z,21.43
2018-05-03T00:02:52.939Z,21.38
2018-05-03T00:03:52.964Z,21.37
2018-05-03T00:04:52.996Z,21.31
2018-05-03T00:05:53.037Z,21.33
2018-05-03T00:06:53.357Z,21.30
2018-05-03T00:07:53.131Z,21.31
2018-05-03T00:08:53.215Z,21.22
2018-05-03T00:09:53.148Z,21.13
2018-05-03T00:10:53.781Z,21.18
2018-05-03T00:11:53.215Z,21.15
2018-05-03T00:12:53.383Z,21.15
2018-05-03T00:13:53.565Z,21.05
2018-05-03T00:14:53.347Z,21.12
2018-05-03T00:15:53.324Z,21.12
2018-05-03T00:16:53.355Z,21.01
2018-05-03T00:17:53.436Z,21.05
2018-05-03T00:18:53.416Z,21.05
2018-05-03T00:19:53.446Z,20.98
2018-05-03T00:20:53.788Z,20.98
2018-05-03T00:21:53.503Z,21.00
2018-05-03T00:22:53.587Z,20.98
2018-05-03T00:23:53.619Z,20.98
2018-05-03T00:24:53.618Z,20.96
2018-05-03T00:25:53.627Z,20.93
2018-05-03T00:26:54.046Z,20.90
2018-05-03T00:27:53.736Z,20.97
2018-05-03T00:28:53.813Z,20.88
2018-05-03T00:29:53.819Z,20.96
2018-05-03T00:30:53.884Z,20.96
2018-05-03T00:31:53.807Z,20.91
2018-05-03T00:32:54.236Z,20.85
2018-05-03T00:33:53.928Z,20.85
2018-05-03T00:34:53.900Z,20.83
2018-05-03T00:35:53.930Z,20.90
2018-05-03T00:36:54.171Z,20.90
2018-05-03T00:37:54.047Z,20.79
2018-05-03T00:38:54.371Z,20.90
2018-05-03T00:39:54.132Z,20.87
2018-05-03T00:40:54.447Z,20.94
2018-05-03T00:41:54.113Z,20.98
2018-05-03T00:42:54.196Z,20.90
2018-05-03T00:43:54.291Z,20.94
2018-05-03T00:44:54.573Z,20.85
2018-05-03T00:45:54.288Z,20.91
2018-05-03T00:46:54.310Z,20.94
2018-05-03T00:47:54.311Z,20.97
2018-05-03T00:48:54.371Z,20.97
2018-05-03T00:49:54.356Z,20.91
2018-05-03T00:50:54.738Z,20.96
2018-05-03T00:51:54.411Z,20.83
2018-05-03T00:52:54.441Z,21.00
2018-05-03T00:53:54.470Z,20.88
2018-05-03T00:54:54.556Z,20.96
2018-05-03T00:55:54.585Z,21.08
2018-05-03T00:56:54.910Z,20.91
2018-05-03T00:57:54.646Z,20.93
2018-05-03T00:58:54.631Z,20.97
2018-05-03T00:59:54.709Z,21.00
2018-05-03T01:00:54.740Z,21.05
2018-05-03T01:01:54.767Z,21.03
2018-05-03T01:02:55.091Z,21.08
2018-05-03T01:03:54.776Z,21.06
2018-05-03T01:04:54.802Z,21.05
2018-05-03T01:05:54.884Z,21.05
2018-05-03T01:06:54.954Z,21.12
2018-05-03T01:07:54.936Z,21.06
2018-05-03T01:08:55.288Z,21.06
2018-05-03T01:09:54.963Z,21.05
2018-05-03T01:10:54.978Z,21.08
2018-05-03T01:11:55.022Z,21.08
2018-05-03T01:12:55.105Z,21.06
2018-05-03T01:13:55.067Z,21.08
2018-05-03T01:14:55.492Z,21.06
2018-05-03T01:15:55.252Z,21.09
2018-05-03T01:16:55.160Z,21.06
2018-05-03T01:17:55.191Z,21.00
2018-05-03T01:18:55.371Z,21.05
2018-05-03T01:19:55.335Z,20.98
2018-05-03T01:20:55.634Z,20.97
2018-05-03T01:21:55.316Z,20.98
2018-05-03T01:22:55.704Z,20.98
2018-05-03T01:23:55.435Z,20.96
2018-05-03T01:24:55.479Z,20.93
2018-05-03T01:25:55.433Z,20.94
2018-05-03T01:26:55.768Z,20.97
2018-05-03T01:27:55.571Z,20.97
2018-05-03T01:28:55.526Z,21.01
2018-05-03T01:29:55.591Z,21.01
2018-05-03T01:30:55.586Z,20.90
2018-05-03T01:31:55.614Z,20.83
2018-05-03T01:32:56.035Z,20.88
2018-05-03T01:33:55.775Z,20.98
2018-05-03T01:34:55.755Z,20.98
2018-05-03T01:35:55.890Z,20.88
2018-05-03T01:36:55.774Z,20.98
2018-05-03T01:37:55.790Z,20.98
2018-05-03T01:38:56.174Z,21.00
2018-05-03T01:39:55.858Z,20.94
2018-05-03T01:40:55.883Z,20.93
2018-05-03T01:41:55.916Z,21.00
2018-05-03T01:42:55.940Z,21.00
2018-05-03T01:43:55.980Z,21.01
2018-05-03T01:44:56.003Z,20.97
2018-05-03T01:45:56.382Z,20.96
2018-05-03T01:46:56.067Z,20.96
2018-05-03T01:47:56.094Z,20.94
2018-05-03T01:48:56.123Z,20.91
2018-05-03T01:49:56.204Z,20.87
2018-05-03T01:50:56.290Z,20.98
2018-05-03T01:51:56.216Z,20.96
2018-05-03T01:52:56.547Z,20.83
2018-05-03T01:53:56.274Z,20.96
2018-05-03T01:54:56.372Z,20.98
2018-05-03T01:55:56.409Z,20.98
2018-05-03T01:56:56.361Z,20.87
2018-05-03T01:57:56.392Z,20.96
2018-05-03T01:58:56.426Z,20.97
2018-05-03T01:59:56.819Z,20.93
2018-05-03T02:00:56.497Z,20.90
2018-05-03T02:01:56.523Z,20.88
2018-05-03T02:02:56.565Z,20.90
2018-05-03T02:03:56.573Z,20.96
2018-05-03T02:04:56.628Z,20.98
2018-05-03T02:05:56.739Z,20.94
2018-05-03T02:06:56.967Z,20.96
2018-05-03T02:07:56.692Z,20.96
2018-05-03T02:08:56.726Z,20.97
2018-05-03T02:09:56.788Z,20.94
2018-05-03T02:10:56.786Z,20.97
2018-05-03T02:11:56.816Z,20.94
2018-05-03T02:12:56.843Z,20.96
2018-05-03T02:13:57.177Z,20.93
2018-05-03T02:14:56.984Z,20.96
2018-05-03T02:15:56.968Z,21.00
2018-05-03T02:16:56.974Z,20.97
2018-05-03T02:17:56.999Z,21.00
2018-05-03T02:18:57.044Z,21.03
2018-05-03T02:19:57.077Z,20.97
2018-05-03T02:20:57.485Z,20.97
2018-05-03T02:21:57.168Z,21.00
2018-05-03T02:22:57.142Z,20.98
2018-05-03T02:23:57.181Z,21.00
2018-05-03T02:24:57.340Z,21.05
2018-05-03T02:25:57.244Z,20.98
2018-05-03T02:26:57.273Z,21.05
2018-05-03T02:27:57.599Z,21.01
2018-05-03T02:28:57.333Z,21.05
2018-05-03T02:29:57.381Z,21.08
2018-05-03T02:30:57.440Z,21.03
2018-05-03T02:31:57.419Z,21.09
2018-05-03T02:32:57.472Z,21.08
2018-05-03T02:33:57.482Z,21.01
2018-05-03T02:34:57.866Z,21.08
2018-05-03T02:35:57.543Z,21.08
2018-05-03T02:36:57.621Z,21.03
2018-05-03T02:37:57.648Z,21.05
2018-05-03T02:38:57.693Z,21.06
2018-05-03T02:39:57.721Z,21.03
2018-05-03T02:40:57.688Z,21.06
2018-05-03T02:41:58.024Z,21.03
2018-05-03T02:42:57.753Z,21.12
2018-05-03T02:43:57.776Z,21.12
2018-05-03T02:44:57.862Z,21.15
2018-05-03T02:45:57.853Z,21.16
2018-05-03T02:46:57.925Z,21.13
2018-05-03T02:47:57.920Z,21.09
2018-05-03T02:48:58.294Z,21.11
2018-05-03T02:49:58.079Z,21.06
2018-05-03T02:50:57.989Z,21.12
2018-05-03T02:51:58.088Z,21.18
2018-05-03T02:52:58.048Z,21.21
2018-05-03T02:53:58.080Z,21.15
2018-05-03T02:54:58.125Z,21.13
2018-05-03T02:55:58.438Z,21.18
2018-05-03T02:56:58.298Z,21.22
2018-05-03T02:57:58.214Z,21.16
2018-05-03T02:58:58.233Z,21.16
2018-05-03T02:59:58.345Z,21.19
2018-05-03T03:00:58.296Z,21.16
2018-05-03T03:01:58.692Z,21.19
2018-05-03T03:02:58.464Z,21.22
2018-05-03T03:03:58.379Z,21.18
2018-05-03T03:04:58.422Z,21.22
2018-05-03T03:05:58.445Z,21.16
2018-05-03T03:06:58.538Z,21.19
2018-05-03T03:07:58.851Z,21.19
2018-05-03T03:08:58.585Z,21.11
2018-05-03T03:09:58.630Z,21.26
2018-05-03T03:10:58.617Z,21.19
2018-05-03T03:11:58.675Z,21.15
2018-05-03T03:12:58.666Z,21.22
2018-05-03T03:13:59.163Z,21.26
2018-05-03T03:14:58.754Z,21.18
2018-05-03T03:15:58.800Z,21.21
2018-05-03T03:16:58.780Z,21.15
2018-05-03T03:17:58.813Z,21.16
2018-05-03T03:18:58.851Z,21.24
2018-05-03T03:19:59.220Z,21.13
2018-05-03T03:20:58.914Z,21.16
2018-05-03T03:21:59.049Z,21.16
2018-05-03T03:22:59.025Z,21.13
2018-05-03T03:23:58.992Z,21.16
2018-05-03T03:24:59.082Z,21.21
2018-05-03T03:25:59.395Z,21.24
2018-05-03T03:26:59.077Z,21.16
2018-05-03T03:27:59.159Z,21.12
2018-05-03T03:28:59.142Z,21.19
2018-05-03T03:29:59.172Z,21.24
2018-05-03T03:30:59.203Z,21.16
2018-05-03T03:32:00.009Z,21.21
2018-05-03T03:32:59.293Z,21.16
2018-05-03T03:33:59.303Z,21.13
2018-05-03T03:34:59.324Z,21.11
2018-05-03T03:35:59.363Z,21.19
2018-05-03T03:36:59.476Z,21.26
2018-05-03T03:37:59.761Z,21.27
2018-05-03T03:38:59.486Z,21.11
2018-05-03T03:39:59.598Z,21.21
2018-05-03T03:40:59.502Z,21.15
2018-05-03T03:41:59.532Z,21.18
2018-05-03T03:42:59.569Z,21.16
2018-05-03T03:43:59.890Z,21.18
2018-05-03T03:44:59.619Z,21.12
2018-05-03T03:45:59.665Z,21.22
2018-05-03T03:46:59.686Z,21.26
2018-05-03T03:47:59.762Z,21.19
2018-05-03T03:48:59.802Z,21.18
2018-05-03T03:50:00.123Z,21.09
2018-05-03T03:50:59.899Z,21.15
2018-05-03T03:51:59.842Z,21.08
2018-05-03T03:52:59.900Z,21.11
2018-05-03T03:53:59.922Z,21.16
2018-05-03T03:54:59.997Z,21.05
2018-05-03T03:56:00.308Z,21.03
2018-05-03T03:56:59.986Z,21.11
2018-05-03T03:58:00.066Z,21.09
2018-05-03T03:59:00.136Z,21.16
2018-05-03T04:00:00.079Z,21.06
2018-05-03T04:01:00.192Z,21.16
2018-05-03T04:02:00.497Z,21.06
2018-05-03T04:03:00.193Z,21.11
2018-05-03T04:04:00.319Z,21.15
2018-05-03T04:05:00.301Z,21.05
2018-05-03T04:06:00.331Z,21.13
2018-05-03T04:07:00.418Z,21.12
2018-05-03T04:08:00.764Z,21.19
2018-05-03T04:09:00.354Z,21.08
2018-05-03T04:10:00.412Z,21.08
2018-05-03T04:11:00.487Z,21.08
2018-05-03T04:12:00.509Z,21.12
2018-05-03T04:13:00.581Z,21.09
2018-05-03T04:14:00.557Z,21.13
2018-05-03T04:15:00.899Z,21.12
2018-05-03T04:16:00.577Z,21.11
2018-05-03T04:17:00.595Z,21.21
2018-05-03T04:18:00.683Z,21.05
2018-05-03T04:19:00.676Z,21.09
2018-05-03T04:20:00.713Z,21.13
2018-05-03T04:21:00.723Z,21.09
2018-05-03T04:22:01.062Z,21.05
2018-05-03T04:23:00.808Z,21.15
2018-05-03T04:24:00.866Z,21.03
2018-05-03T04:25:00.946Z,21.05
2018-05-03T04:26:00.871Z,21.11
2018-05-03T04:27:00.962Z,21.06
2018-05-03T04:28:00.928Z,21.05
2018-05-03T04:29:01.314Z,21.01
2018-05-03T04:30:01.063Z,21.08
2018-05-03T04:31:01.090Z,21.11
2018-05-03T04:32:01.102Z,21.03
2018-05-03T04:33:01.083Z,20.98
2018-05-03T04:34:01.166Z,21.01
2018-05-03T04:35:01.149Z,20.98
2018-05-03T04:36:01.580Z,21.01
2018-05-03T04:37:01.245Z,21.01
2018-05-03T04:38:01.298Z,20.97
2018-05-03T04:39:01.277Z,20.98
2018-05-03T04:40:01.334Z,20.98
2018-05-03T04:41:01.384Z,21.00
2018-05-03T04:42:01.550Z,21.03
2018-05-03T04:43:01.915Z,20.98
2018-05-03T04:44:01.477Z,20.98
2018-05-03T04:45:01.452Z,20.98
2018-05-03T04:46:01.543Z,21.03
2018-05-03T04:47:01.692Z,20.90
2018-05-03T04:48:01.549Z,21.00
2018-05-03T04:49:01.639Z,20.91
2018-05-03T04:50:01.965Z,20.96
2018-05-03T04:51:01.724Z,20.93
2018-05-03T04:52:01.662Z,20.94
2018-05-03T04:53:01.744Z,21.03
2018-05-03T04:54:01.774Z,20.98
2018-05-03T04:55:01.814Z,20.96
2018-05-03T04:56:01.787Z,20.96
2018-05-03T04:57:02.165Z,20.93
2018-05-03T04:58:01.908Z,21.00
2018-05-03T04:59:01.990Z,20.93
2018-05-03T05:00:01.910Z,21.03
2018-05-03T05:01:02.046Z,21.01
2018-05-03T05:02:01.984Z,20.94
2018-05-03T05:03:02.063Z,20.97
2018-05-03T05:04:02.647Z,21.06
2018-05-03T05:05:02.063Z,21.03
2018-05-03T05:06:02.138Z,21.00
2018-05-03T05:07:02.117Z,20.93
2018-05-03T05:08:02.202Z,20.98
2018-05-03T05:09:02.174Z,20.98
2018-05-03T05:10:02.207Z,20.97
2018-05-03T05:11:02.542Z,20.98
2018-05-03T05:12:02.271Z,20.97
2018-05-03T05:13:02.303Z,20.97
2018-05-03T05:14:02.456Z,21.00
2018-05-03T05:15:02.367Z,20.97
2018-05-03T05:17:02.487Z,21.05
2018-05-03T05:18:02.750Z,21.01
2018-05-03T05:19:02.590Z,21.00
2018-05-03T05:20:02.562Z,21.03
2018-05-03T05:21:02.545Z,21.03
2018-05-03T05:22:02.969Z,20.98
2018-05-03T05:23:02.660Z,21.00
2018-05-03T05:24:02.637Z,21.05
2018-05-03T05:25:03.016Z,21.01
2018-05-03T05:26:02.746Z,21.00
2018-05-03T05:27:02.722Z,21.08
2018-05-03T05:28:02.765Z,21.06
2018-05-03T05:29:02.841Z,21.06
2018-05-03T05:30:02.819Z,21.03
2018-05-03T05:31:02.897Z,21.03
2018-05-03T05:32:03.224Z,21.08
2018-05-03T05:33:03.009Z,21.05
2018-05-03T05:34:02.944Z,21.08
2018-05-03T05:35:02.965Z,21.00
2018-05-03T05:36:03.068Z,21.03
2018-05-03T05:37:03.033Z,21.12
2018-05-03T05:38:03.412Z,21.08
2018-05-03T05:39:03.254Z,21.01
2018-05-03T05:40:03.359Z,21.09
2018-05-03T05:41:03.205Z,21.03
2018-05-03T05:42:03.175Z,21.03
2018-05-03T05:43:03.262Z,21.08
2018-05-03T05:44:03.743Z,21.05
2018-05-03T05:45:03.270Z,21.06
2018-05-03T05:46:03.354Z,21.05
2018-05-03T05:47:03.330Z,21.12
2018-05-03T05:48:03.360Z,21.06
2018-05-03T05:49:03.443Z,21.01
2018-05-03T05:50:03.800Z,21.03
2018-05-03T05:51:03.546Z,21.03
2018-05-03T05:52:03.482Z,21.06
2018-05-03T05:53:03.530Z,21.01
2018-05-03T05:54:03.558Z,21.08
2018-05-03T05:55:03.582Z,21.12
2018-05-03T05:56:03.917Z,21.12
2018-05-03T05:57:03.696Z,21.03
2018-05-03T05:58:03.947Z,21.08
2018-05-03T05:59:03.710Z,21.05
2018-05-03T06:00:03.729Z,21.09
2018-05-03T06:01:03.763Z,21.18
2018-05-03T06:02:04.147Z,21.21
2018-05-03T06:03:03.919Z,21.24
2018-05-03T06:04:03.853Z,21.31
2018-05-03T06:05:03.881Z,21.33
2018-05-03T06:06:03.919Z,21.36
2018-05-03T06:07:03.947Z,21.36
2018-05-03T06:08:04.344Z,21.40
2018-05-03T06:09:04.054Z,21.46
2018-05-03T06:10:04.102Z,21.40
2018-05-03T06:11:04.076Z,21.48
2018-05-03T06:12:04.095Z,21.52
2018-05-03T06:13:04.133Z,21.58
2018-05-03T06:14:04.505Z,21.64
2018-05-03T06:15:04.182Z,21.63
2018-05-03T06:16:04.224Z,21.67
2018-05-03T06:17:04.335Z,21.71
2018-05-03T06:18:04.277Z,21.74
2018-05-03T06:19:04.419Z,21.82
2018-05-03T06:20:04.976Z,21.75
2018-05-03T06:21:04.422Z,21.71
2018-05-03T06:22:04.404Z,21.83
2018-05-03T06:23:04.430Z,21.90
2018-05-03T06:24:04.462Z,21.89
2018-05-03T06:25:04.571Z,21.85
2018-05-03T06:26:04.981Z,21.93
2018-05-03T06:27:04.605Z,21.91
2018-05-03T06:28:04.885Z,21.96
2018-05-03T06:29:04.623Z,21.90
2018-05-03T06:30:04.704Z,21.93
2018-05-03T06:31:04.941Z,21.91
2018-05-03T06:32:05.075Z,21.93
2018-05-03T06:33:04.808Z,21.96
2018-05-03T06:34:04.772Z,21.98
2018-05-03T06:35:04.810Z,22.02
2018-05-03T06:36:04.909Z,22.01
2018-05-03T06:37:04.867Z,22.09
2018-05-03T06:38:04.947Z,22.02
2018-05-03T06:39:04.933Z,22.08
2018-05-03T06:40:05.023Z,22.05
2018-05-03T06:41:05.013Z,22.06
2018-05-03T06:42:05.085Z,22.01
2018-05-03T06:43:05.079Z,22.01
2018-05-03T06:44:05.448Z,22.05
2018-05-03T06:45:05.140Z,22.06
2018-05-03T06:46:05.148Z,22.11
2018-05-03T06:47:05.178Z,22.14
2018-05-03T06:48:05.264Z,22.09
2018-05-03T06:49:05.247Z,22.20
2018-05-03T06:50:05.319Z,22.14
2018-05-03T06:51:05.634Z,22.19
2018-05-03T06:52:05.334Z,22.14
2018-05-03T06:53:05.366Z,22.19
2018-05-03T06:54:05.399Z,22.24
2018-05-03T06:55:05.445Z,22.17
2018-05-03T06:56:05.458Z,22.24
2018-05-03T06:57:05.546Z,22.23
2018-05-03T06:58:05.907Z,22.24
2018-05-03T06:59:05.586Z,22.21
2018-05-03T07:00:05.586Z,22.23
2018-05-03T07:01:05.763Z,22.35
2018-05-03T07:02:05.680Z,22.30
2018-05-03T07:03:05.696Z,22.29
2018-05-03T07:04:05.823Z,22.26
2018-05-03T07:05:06.090Z,22.30
2018-05-03T07:06:05.836Z,22.31
2018-05-03T07:07:05.854Z,22.21
2018-05-03T07:08:05.865Z,22.27
2018-05-03T07:09:05.873Z,22.33
2018-05-03T07:10:06.005Z,22.27
2018-05-03T07:11:05.978Z,22.35
2018-05-03T07:12:06.335Z,22.31
2018-05-03T07:13:06.064Z,22.27
2018-05-03T07:14:06.031Z,22.23
2018-05-03T07:15:06.053Z,22.33
2018-05-03T07:16:06.108Z,22.33
2018-05-03T07:17:06.116Z,22.31
2018-05-03T07:18:06.150Z,22.33
2018-05-03T07:19:06.484Z,22.42
2018-05-03T07:20:06.210Z,22.39
2018-05-03T07:21:06.248Z,22.44
2018-05-03T07:22:06.274Z,22.38
2018-05-03T07:23:06.309Z,22.45
2018-05-03T07:24:06.341Z,22.48
2018-05-03T07:25:06.374Z,22.42
2018-05-03T07:26:06.777Z,22.42
2018-05-03T07:27:06.426Z,22.33
2018-05-03T07:28:06.519Z,22.41
2018-05-03T07:29:06.493Z,22.45
2018-05-03T07:30:06.524Z,22.42
2018-05-03T07:31:06.607Z,22.42
2018-05-03T07:32:06.649Z,22.41
2018-05-03T07:33:06.934Z,22.38
2018-05-03T07:34:06.659Z,22.39
2018-05-03T07:35:06.692Z,22.51
2018-05-03T07:36:06.774Z,22.48
2018-05-03T07:37:06.761Z,22.45
2018-05-03T07:38:06.797Z,22.42
2018-05-03T07:39:06.809Z,22.45
2018-05-03T07:40:07.140Z,22.44
2018-05-03T07:41:06.933Z,22.44
2018-05-03T07:42:06.901Z,22.49
2018-05-03T07:43:06.928Z,22.48
2018-05-03T07:44:06.964Z,22.49
2018-05-03T07:45:06.994Z,22.48
2018-05-03T07:46:07.100Z,22.48
2018-05-03T07:47:07.419Z,22.51
2018-05-03T07:48:07.117Z,22.46
2018-05-03T07:49:07.156Z,22.49
2018-05-03T07:50:07.152Z,22.48
2018-05-03T07:51:07.182Z,22.48
2018-05-03T07:52:07.212Z,22.45
2018-05-03T07:53:07.271Z,22.48
2018-05-03T07:54:07.626Z,22.49
2018-05-03T07:55:07.696Z,22.52
2018-05-03T07:56:07.340Z,22.52
2018-05-03T07:57:07.442Z,22.48
2018-05-03T07:59:07.434Z,22.48
2018-05-03T08:00:07.485Z,22.51
2018-05-03T08:01:07.830Z,22.54
2018-05-03T08:02:07.641Z,22.45
2018-05-03T08:03:07.577Z,22.46
2018-05-03T08:04:07.609Z,22.48
2018-05-03T08:05:07.675Z,22.59
2018-05-03T08:06:07.656Z,22.57
2018-05-03T08:07:08.340Z,22.49
2018-05-03T08:08:07.720Z,22.51
2018-05-03T08:09:07.755Z,22.57
2018-05-03T08:10:07.782Z,22.52
2018-05-03T08:11:07.813Z,22.52
2018-05-03T08:12:07.844Z,22.54
2018-05-03T08:13:08.276Z,22.56
2018-05-03T08:14:07.908Z,22.61
2018-05-03T08:15:07.959Z,22.57
2018-05-03T08:16:07.972Z,22.60
2018-05-03T08:17:08.209Z,22.61
2018-05-03T08:18:08.040Z,22.57
2018-05-03T08:19:08.495Z,22.54
2018-05-03T08:20:08.108Z,22.57
2018-05-03T08:21:08.140Z,22.59
2018-05-03T08:22:08.174Z,22.59
2018-05-03T08:23:08.195Z,22.56
2018-05-03T08:24:08.250Z,22.54
2018-05-03T08:25:08.644Z,22.51
2018-05-03T08:26:08.299Z,22.52
2018-05-03T08:27:08.320Z,22.57
2018-05-03T08:28:08.350Z,22.64
2018-05-03T08:29:08.451Z,22.63
2018-05-03T08:30:08.505Z,22.64
2018-05-03T08:31:08.794Z,22.66
2018-05-03T08:32:08.540Z,22.56
2018-05-03T08:33:08.518Z,22.63
2018-05-03T08:34:08.598Z,22.64
2018-05-03T08:35:08.663Z,22.59
2018-05-03T08:36:08.608Z,22.64
2018-05-03T08:37:08.988Z,22.57
2018-05-03T08:38:08.682Z,22.61
2018-05-03T08:39:08.767Z,22.64
2018-05-03T08:40:08.736Z,22.66
2018-05-03T08:41:08.765Z,22.64
2018-05-03T08:42:08.793Z,22.64
2018-05-03T08:43:09.198Z,22.63
2018-05-03T08:44:08.933Z,22.70
2018-05-03T08:45:08.942Z,22.72
2018-05-03T08:46:08.921Z,22.66
2018-05-03T08:47:08.963Z,22.72
2018-05-03T08:48:09.054Z,22.67
2018-05-03T08:49:09.375Z,22.74
2018-05-03T08:50:09.069Z,22.67
2018-05-03T08:51:09.132Z,22.69
2018-05-03T08:52:09.165Z,22.67
2018-05-03T08:53:09.212Z,22.63
2018-05-03T08:54:09.209Z,22.70
2018-05-03T08:55:09.559Z,22.72
2018-05-03T08:56:09.244Z,22.72
2018-05-03T08:57:09.326Z,22.78
2018-05-03T08:58:09.311Z,22.75
2018-05-03T08:59:09.383Z,22.75
2018-05-03T09:00:09.367Z,22.81
2018-05-03T09:01:09.398Z,22.84
2018-05-03T09:02:09.443Z,22.79
2018-05-03T09:03:09.469Z,22.85
2018-05-03T09:04:10.025Z,22.86
2018-05-03T09:05:09.630Z,22.84
2018-05-03T09:06:09.563Z,22.86
2018-05-03T09:07:09.897Z,22.85
2018-05-03T09:08:09.727Z,22.89
2018-05-03T09:09:09.707Z,22.82
2018-05-03T09:10:09.719Z,22.86
2018-05-03T09:11:09.727Z,22.94
2018-05-03T09:12:09.752Z,22.88
2018-05-03T09:13:10.150Z,22.82
2018-05-03T09:14:09.819Z,22.81
2018-05-03T09:15:09.848Z,22.85
2018-05-03T09:16:09.890Z,22.85
2018-05-03T09:17:09.915Z,22.97
2018-05-03T09:18:09.943Z,22.81
2018-05-03T09:19:10.328Z,22.81
2018-05-03T09:20:10.021Z,22.88
2018-05-03T09:21:10.100Z,22.85
2018-05-03T09:22:10.078Z,22.93
2018-05-03T09:23:10.106Z,22.96
2018-05-03T09:24:10.139Z,22.97
2018-05-03T09:25:10.174Z,22.89
2018-05-03T09:26:10.657Z,22.97
2018-05-03T09:27:10.243Z,22.93
2018-05-03T09:28:10.266Z,22.94
2018-05-03T09:29:10.369Z,22.91
2018-05-03T09:30:10.410Z,22.93
2018-05-03T09:31:10.419Z,22.94
2018-05-03T09:32:10.408Z,22.97
2018-05-03T09:33:10.800Z,22.97
2018-05-03T09:34:10.536Z,22.96
2018-05-03T09:35:10.498Z,23.01
2018-05-03T09:36:10.530Z,22.96
2018-05-03T09:37:10.659Z,23.01
2018-05-03T09:38:10.591Z,22.96
2018-05-03T09:39:10.679Z,22.96
2018-05-03T09:40:10.961Z,23.00
2018-05-03T09:41:10.698Z,22.96
2018-05-03T09:42:10.717Z,23.09
2018-05-03T09:43:10.752Z,23.03
2018-05-03T09:44:10.881Z,23.04
2018-05-03T09:45:10.889Z,23.04
2018-05-03T09:46:10.851Z,23.03
2018-05-03T09:47:11.187Z,23.01
2018-05-03T09:48:10.967Z,23.01
2018-05-03T09:49:10.940Z,23.00
2018-05-03T09:50:10.996Z,23.01
2018-05-03T09:51:11.017Z,23.03
2018-05-03T09:52:11.043Z,23.07
2018-05-03T09:53:11.120Z,23.12
2018-05-03T09:54:11.403Z,23.04
2018-05-03T09:55:11.151Z,23.06
2018-05-03T09:56:11.167Z,23.06
2018-05-03T09:57:11.197Z,23.09
2018-05-03T09:58:11.279Z,23.01
2018-05-03T09:59:11.324Z,23.07
2018-05-03T10:00:11.307Z,23.12
2018-05-03T10:01:11.682Z,23.11
2018-05-03T10:02:11.377Z,23.04
2018-05-03T10:03:11.421Z,23.11
2018-05-03T10:04:11.431Z,23.15
2018-05-03T10:05:11.463Z,23.06
2018-05-03T10:06:11.505Z,23.06
2018-05-03T10:07:11.583Z,23.09
2018-05-03T10:08:11.899Z,23.14
2018-05-03T10:09:11.593Z,23.15
2018-05-03T10:10:11.692Z,23.18
2018-05-03T10:11:11.735Z,23.19
2018-05-03T10:12:11.684Z,23.18
2018-05-03T10:13:11.746Z,23.18
2018-05-03T10:14:11.759Z,23.19
2018-05-03T10:15:12.137Z,23.11
2018-05-03T10:16:11.834Z,23.18
2018-05-03T10:17:11.856Z,23.26
2018-05-03T10:18:11.907Z,23.21
2018-05-03T10:19:11.984Z,23.29
2018-05-03T10:20:11.963Z,23.23
2018-05-03T10:21:11.983Z,23.25
2018-05-03T10:22:12.316Z,23.26
2018-05-03T10:23:12.062Z,23.25
2018-05-03T10:24:12.105Z,23.25
2018-05-03T10:25:12.118Z,23.29
2018-05-03T10:26:12.169Z,23.31
2018-05-03T10:27:12.174Z,23.35
2018-05-03T10:28:12.207Z,23.38
2018-05-03T10:29:12.596Z,23.29
2018-05-03T10:30:12.415Z,23.34
2018-05-03T10:31:12.387Z,23.38
2018-05-03T10:32:12.433Z,23.39
2018-05-03T10:33:12.383Z,23.38
2018-05-03T10:34:12.412Z,23.34
2018-05-03T10:35:12.437Z,23.34
2018-05-03T10:36:13.270Z,23.38
2018-05-03T10:37:12.507Z,23.42
2018-05-03T10:38:12.543Z,23.41
2018-05-03T10:39:12.571Z,23.45
2018-05-03T10:40:12.605Z,23.41
2018-05-03T10:41:12.635Z,23.44
2018-05-03T10:42:12.732Z,23.44
2018-05-03T10:43:13.052Z,23.45
2018-05-03T10:44:12.731Z,23.45
2018-05-03T10:45:12.864Z,23.45
2018-05-03T10:46:12.807Z,23.49
2018-05-03T10:47:12.879Z,23.44
2018-05-03T10:48:12.912Z,23.54
2018-05-03T10:49:13.194Z,23.47
2018-05-03T10:50:12.939Z,23.57
2018-05-03T10:51:12.969Z,23.54
2018-05-03T10:52:13.068Z,23.42
2018-05-03T10:53:13.054Z,23.56
2018-05-03T10:54:13.083Z,23.57
2018-05-03T10:55:13.395Z,23.57
2018-05-03T10:56:13.176Z,23.59
2018-05-03T10:57:13.211Z,23.57
2018-05-03T10:58:13.197Z,23.57
2018-05-03T10:59:13.273Z,23.60
2018-05-03T11:00:13.359Z,23.63
2018-05-03T11:01:13.644Z,23.59
2018-05-03T11:02:13.468Z,23.63
2018-05-03T11:03:13.362Z,23.63
2018-05-03T11:04:13.398Z,23.59
2018-05-03T11:05:13.462Z,23.67
2018-05-03T11:06:13.454Z,23.57
2018-05-03T11:07:13.838Z,23.67
2018-05-03T11:08:13.614Z,23.63
2018-05-03T11:09:13.611Z,23.57
2018-05-03T11:10:13.658Z,23.60
2018-05-03T11:11:13.714Z,23.67
2018-05-03T11:12:13.659Z,23.59
2018-05-03T11:13:14.036Z,23.59
2018-05-03T11:14:13.736Z,23.60
2018-05-03T11:15:13.775Z,23.59
2018-05-03T11:16:13.904Z,23.64
2018-05-03T11:17:13.822Z,23.60
2018-05-03T11:18:13.903Z,23.57
2018-05-03T11:19:14.238Z,23.60
2018-05-03T11:20:13.913Z,23.67
2018-05-03T11:21:13.953Z,23.64
2018-05-03T11:22:13.991Z,23.62
2018-05-03T11:23:14.091Z,23.67
2018-05-03T11:24:14.103Z,23.62
2018-05-03T11:25:14.444Z,23.71
2018-05-03T11:26:14.119Z,23.68
2018-05-03T11:27:14.199Z,23.63
2018-05-03T11:28:14.188Z,23.69
2018-05-03T11:29:14.213Z,23.74
2018-05-03T11:30:14.297Z,23.67
2018-05-03T11:31:14.720Z,23.75
2018-05-03T11:32:14.320Z,23.78
2018-05-03T11:33:14.393Z,23.69
2018-05-03T11:34:14.383Z,23.71
2018-05-03T11:35:14.687Z,23.74
2018-05-03T11:36:14.505Z,23.78
2018-05-03T11:37:15.214Z,23.74
2018-05-03T11:38:14.904Z,23.75
2018-05-03T11:39:15.452Z,23.79
2018-05-03T11:40:14.943Z,23.77
2018-05-03T11:41:14.910Z,23.81
2018-05-03T11:42:14.677Z,23.78
2018-05-03T11:43:15.376Z,23.77
2018-05-03T11:44:15.241Z,23.79
2018-05-03T11:45:15.074Z,23.78
2018-05-03T11:46:15.108Z,23.89
2018-05-03T11:47:14.900Z,23.75
2018-05-03T11:48:14.898Z,23.87
2018-05-03T11:49:15.221Z,23.78
2018-05-03T11:50:14.962Z,23.89
2018-05-03T11:51:14.945Z,23.92
2018-05-03T11:52:15.031Z,23.82
2018-05-03T11:53:15.016Z,23.79
2018-05-03T11:54:15.118Z,23.82
2018-05-03T11:55:15.431Z,23.89
2018-05-03T11:56:15.171Z,23.89
2018-05-03T11:57:15.141Z,23.84
2018-05-03T11:58:15.232Z,23.89
2018-05-03T11:59:15.319Z,23.89
2018-05-03T12:00:15.284Z,23.90
2018-05-03T12:01:15.283Z,23.86
2018-05-03T12:02:15.667Z,23.90
2018-05-03T12:03:15.803Z,23.86
2018-05-03T12:04:15.517Z,23.94
2018-05-03T12:05:15.418Z,23.89
2018-05-03T12:06:15.446Z,23.92
2018-05-03T12:07:15.476Z,23.84
2018-05-03T12:08:15.534Z,23.92
2018-05-03T12:09:16.028Z,23.87
2018-05-03T12:10:15.580Z,23.86
2018-05-03T12:11:15.639Z,23.94
2018-05-03T12:12:15.656Z,23.94
2018-05-03T12:13:15.783Z,23.87
2018-05-03T12:14:15.727Z,23.96
2018-05-03T12:15:15.753Z,23.84
2018-05-03T12:16:16.101Z,23.87
2018-05-03T12:17:15.822Z,23.92
2018-05-03T12:18:16.393Z,23.92
2018-05-03T12:19:15.893Z,23.93
2018-05-03T12:20:15.990Z,23.96
2018-05-03T12:21:15.954Z,23.87
2018-05-03T12:22:16.154Z,23.82
2018-05-03T12:23:16.371Z,23.96
2018-05-03T12:24:16.059Z,23.79
2018-05-03T12:25:16.282Z,23.94
2018-05-03T12:26:16.126Z,23.90
2018-05-03T12:27:16.200Z,23.89
2018-05-03T12:28:16.241Z,23.97
2018-05-03T12:29:16.229Z,23.96
2018-05-03T12:30:16.557Z,23.96
2018-05-03T12:31:16.338Z,23.99
2018-05-03T12:32:16.326Z,23.97
2018-05-03T12:33:16.355Z,24.05
2018-05-03T12:34:16.382Z,23.96
2018-05-03T12:35:16.470Z,23.99
2018-05-03T12:36:16.511Z,23.97
2018-05-03T12:37:16.836Z,24.02
2018-05-03T12:38:16.527Z,23.96
2018-05-03T12:39:16.616Z,24.06
2018-05-03T12:40:16.660Z,24.02
2018-05-03T12:41:16.632Z,24.05
2018-05-03T12:42:16.656Z,24.02
2018-05-03T12:43:16.769Z,24.08
2018-05-03T12:44:17.030Z,24.05
2018-05-03T12:45:16.755Z,24.02
2018-05-03T12:46:16.930Z,24.09
2018-05-03T12:47:16.877Z,24.04
2018-05-03T12:48:16.858Z,24.16
2018-05-03T12:49:16.888Z,24.16
2018-05-03T12:50:16.944Z,24.09
2018-05-03T12:51:17.357Z,24.11
2018-05-03T12:52:16.987Z,24.18
2018-05-03T12:53:17.077Z,24.15
2018-05-03T12:54:17.059Z,24.19
2018-05-03T12:55:17.160Z,24.14